Time;durP1;ratioP1;P1;durP2;ratioP2;P2;SDS_P1;SDS_P2;PMS_P1;PMS_P2;Temp;Humidity;BMP_temperature;BMP_pressure;BME280_temperature;BME280_humidity;BME280_pressure;Samples;Min_cycle;Max_cycle;Signal;HPM_P1;HPM_P2
2022/11/08 00:01:46;;;;;;;;;;;21.80;61.60;;;;;;1549958;75;1676;-63
2022/11/08 00:03:48;;;;;;;;;;;21.90;61.50;;;;;;1552710;75;1097;-64
2022/11/08 00:15:09;;;;;;;;;;;22.10;60.50;;;;;;1548275;75;1662;-64
2022/11/08 00:17:11;;;;;;;;;;;22.00;60.40;;;;;;1561765;75;727;-63
2022/11/08 00:19:13;;;;;;;;;;;22.10;60.40;;;;;;1555176;75;717;-64
2022/11/08 00:21:15;;;;;;;;;;;22.00;60.30;;;;;;1556304;75;1943;-64
2022/11/08 00:23:16;;;;;;;;;;;22.00;60.30;;;;;;1552932;75;1237;-63
2022/11/08 00:25:18;;;;;;;;;;;22.00;60.20;;;;;;1555618;75;663;-62
2022/11/08 00:27:21;;;;;;;;;;;22.00;60.20;;;;;;1548221;74;682;-62
2022/11/08 00:29:22;;;;;;;;;;;22.10;60.20;;;;;;1551913;75;679;-62
2022/11/08 00:31:24;;;;;;;;;;;22.00;60.00;;;;;;1549711;75;652;-62
2022/11/08 00:33:46;;;;;;;;;;;22.10;60.10;;;;;;1562505;75;1252;-63
2022/11/08 00:35:47;;;;;;;;;;;22.10;60.10;;;;;;1495986;78;690;-67
2022/11/08 00:37:49;;;;;;;;;;;22.10;60.00;;;;;;1496503;78;730;-68
2022/11/08 00:39:51;;;;;;;;;;;22.10;60.00;;;;;;1495969;78;1945;-66
2022/11/08 00:41:53;;;;;;;;;;;22.10;60.00;;;;;;1496142;78;687;-67
2022/11/08 00:43:55;;;;;;;;;;;22.10;59.80;;;;;;1500871;77;1212;-67
2022/11/08 00:45:57;;;;;;;;;;;22.10;59.80;;;;;;1522746;77;790;-66
2022/11/08 00:47:59;;;;;;;;;;;22.10;59.70;;;;;;1524655;77;649;-66
2022/11/08 00:50:00;;;;;;;;;;;22.20;59.60;;;;;;1517173;77;702;-68
2022/11/08 00:52:02;;;;;;;;;;;22.20;59.50;;;;;;1524045;77;753;-67
2022/11/08 00:54:05;;;;;;;;;;;22.20;59.40;;;;;;1520520;77;1142;-66
2022/11/08 00:56:07;;;;;;;;;;;22.20;59.40;;;;;;1518221;77;812;-65
2022/11/08 00:58:09;;;;;;;;;;;22.20;59.30;;;;;;1519817;77;736;-68
2022/11/08 01:00:11;;;;;;;;;;;22.20;59.40;;;;;;1517161;77;1940;-67
2022/11/08 01:02:13;;;;;;;;;;;22.30;59.40;;;;;;1516889;77;737;-68
2022/11/08 01:04:16;;;;;;;;;;;22.30;59.20;;;;;;1517936;77;1136;-65
2022/11/08 01:06:18;;;;;;;;;;;22.20;59.20;;;;;;1522088;77;774;-67
2022/11/08 01:08:21;;;;;;;;;;;22.20;59.10;;;;;;1517350;77;735;-64
2022/11/08 01:10:23;;;;;;;;;;;22.20;59.10;;;;;;1518872;77;1545;-67
2022/11/08 01:12:25;;;;;;;;;;;22.20;59.10;;;;;;1516622;77;727;-67
2022/11/08 01:14:27;;;;;;;;;;;22.20;59.00;;;;;;1516820;77;1152;-67
2022/11/08 01:16:29;;;;;;;;;;;22.20;58.90;;;;;;1518596;77;744;-68
2022/11/08 01:18:31;;;;;;;;;;;22.30;58.90;;;;;;1517213;77;698;-66
2022/11/08 01:20:33;;;;;;;;;;;22.20;58.90;;;;;;1523189;77;1958;-71
2022/11/08 01:22:35;;;;;;;;;;;22.20;58.90;;;;;;1486903;78;1281;-68
2022/11/08 01:24:37;;;;;;;;;;;22.20;58.90;;;;;;1518049;77;1122;-67
2022/11/08 01:26:39;;;;;;;;;;;22.30;58.90;;;;;;1518463;77;758;-68
2022/11/08 01:28:41;;;;;;;;;;;22.30;58.90;;;;;;1517597;77;667;-66
2022/11/08 01:30:43;;;;;;;;;;;22.20;58.40;;;;;;1518891;77;760;-66
2022/11/08 01:32:45;;;;;;;;;;;22.20;58.80;;;;;;1518931;77;613;-66
2022/11/08 01:34:47;;;;;;;;;;;22.20;58.70;;;;;;1518140;77;1162;-67
2022/11/08 01:36:49;;;;;;;;;;;22.30;58.80;;;;;;1518454;77;638;-67
2022/11/08 01:38:50;;;;;;;;;;;22.30;58.40;;;;;;1518539;77;652;-67
2022/11/08 01:40:52;;;;;;;;;;;22.30;58.40;;;;;;1516577;77;1941;-68
2022/11/08 01:42:54;;;;;;;;;;;22.30;58.30;;;;;;1517849;77;681;-71
2022/11/08 01:44:58;;;;;;;;;;;22.30;58.20;;;;;;1515780;77;1139;-71
2022/11/08 01:47:00;;;;;;;;;;;22.30;58.20;;;;;;1510706;77;1058;-66
2022/11/08 01:49:06;;;;;;;;;;;22.30;58.20;;;;;;1524642;77;719;-67
2022/11/08 01:51:08;;;;;;;;;;;22.30;58.20;;;;;;1518080;77;710;-68
2022/11/08 01:53:10;;;;;;;;;;;22.20;58.10;;;;;;1517186;77;653;-67
2022/11/08 01:55:16;;;;;;;;;;;22.30;58.20;;;;;;1519137;77;1123;-66
2022/11/08 01:57:20;;;;;;;;;;;22.20;58.00;;;;;;1516935;77;758;-65
2022/11/08 01:59:22;;;;;;;;;;;22.30;58.10;;;;;;1511962;77;1948;-67
2022/11/08 02:01:24;;;;;;;;;;;22.30;58.10;;;;;;1518144;77;1913;-68
2022/11/08 02:03:25;;;;;;;;;;;22.30;57.90;;;;;;1510851;77;694;-68
2022/11/08 02:05:28;;;;;;;;;;;22.20;57.80;;;;;;1522596;77;1556;-65
2022/11/08 02:07:30;;;;;;;;;;;22.30;57.90;;;;;;1521706;77;690;-67
2022/11/08 02:09:31;;;;;;;;;;;22.30;57.80;;;;;;1516696;77;677;-67
2022/11/08 02:11:34;;;;;;;;;;;22.30;57.80;;;;;;1517513;77;680;-67
2022/11/08 02:13:36;;;;;;;;;;;22.30;57.70;;;;;;1518394;77;1146;-68
2022/11/08 02:15:38;;;;;;;;;;;22.30;57.70;;;;;;1517116;77;653;-67
2022/11/08 02:17:40;;;;;;;;;;;22.30;57.70;;;;;;1516740;77;780;-67
2022/11/08 02:19:49;;;;;;;;;;;22.30;57.80;;;;;;1517569;77;549;-66
2022/11/08 02:21:58;;;;;;;;;;;22.30;57.60;;;;;;1517206;77;1937;-69
2022/11/08 02:24:00;;;;;;;;;;;22.30;57.60;;;;;;1510972;77;1140;-66
2022/11/08 02:26:02;;;;;;;;;;;22.30;57.60;;;;;;1516806;77;707;-67
2022/11/08 02:28:04;;;;;;;;;;;22.30;57.50;;;;;;1518627;77;755;-68
2022/11/08 02:30:06;;;;;;;;;;;22.20;57.40;;;;;;1519833;77;624;-69
2022/11/08 02:32:10;;;;;;;;;;;22.30;57.50;;;;;;1518144;77;698;-64
2022/11/08 02:34:12;;;;;;;;;;;22.30;57.50;;;;;;1519908;77;1166;-68
2022/11/08 02:36:17;;;;;;;;;;;22.30;57.50;;;;;;1519015;77;791;-66
2022/11/08 02:38:19;;;;;;;;;;;22.20;57.30;;;;;;1517264;77;722;-65
2022/11/08 02:40:21;;;;;;;;;;;22.40;57.30;;;;;;1516677;77;642;-64
2022/11/08 02:42:22;;;;;;;;;;;22.40;57.20;;;;;;1516654;77;708;-71
2022/11/08 02:44:24;;;;;;;;;;;22.40;57.10;;;;;;1524184;75;1150;-68
2022/11/08 02:46:26;;;;;;;;;;;22.50;57.10;;;;;;1518444;77;753;-68
2022/11/08 02:48:28;;;;;;;;;;;22.50;57.10;;;;;;1518500;77;715;-66
2022/11/08 02:50:30;;;;;;;;;;;22.40;56.80;;;;;;1518802;77;723;-65
2022/11/08 02:52:32;;;;;;;;;;;22.40;56.80;;;;;;1516722;77;745;-64
2022/11/08 02:54:34;;;;;;;;;;;22.40;56.80;;;;;;1519038;77;1148;-66
2022/11/08 02:56:36;;;;;;;;;;;22.50;56.90;;;;;;1518467;77;668;-69
2022/11/08 02:58:38;;;;;;;;;;;22.40;56.70;;;;;;1519986;77;520;-68
2022/11/08 03:00:40;;;;;;;;;;;22.40;56.70;;;;;;1517880;77;1919;-67
2022/11/08 03:02:42;;;;;;;;;;;22.30;56.90;;;;;;1520617;77;1392;-66
2022/11/08 03:04:43;;;;;;;;;;;22.30;57.00;;;;;;1519656;77;1173;-67
2022/11/08 03:06:46;;;;;;;;;;;22.30;56.90;;;;;;1518852;77;614;-66
2022/11/08 03:08:48;;;;;;;;;;;22.30;57.10;;;;;;1519108;77;668;-68
2022/11/08 03:10:50;;;;;;;;;;;22.30;57.00;;;;;;1516393;77;663;-66
2022/11/08 03:12:55;;;;;;;;;;;22.30;57.00;;;;;;1518874;77;757;-67
2022/11/08 03:14:57;;;;;;;;;;;22.30;56.90;;;;;;1517329;77;1165;-68
2022/11/08 03:16:59;;;;;;;;;;;22.30;57.10;;;;;;1530125;77;677;-66
2022/11/08 03:19:01;;;;;;;;;;;22.20;56.80;;;;;;1519799;77;648;-67
2022/11/08 03:21:02;;;;;;;;;;;22.30;56.90;;;;;;1517832;77;1940;-69
2022/11/08 03:23:05;;;;;;;;;;;22.20;57.10;;;;;;1518935;77;647;-67
2022/11/08 03:25:07;;;;;;;;;;;22.30;57.20;;;;;;1518676;77;1110;-65
2022/11/08 03:27:09;;;;;;;;;;;22.40;57.00;;;;;;1519338;77;711;-67
2022/11/08 03:29:11;;;;;;;;;;;22.40;56.80;;;;;;1518385;77;771;-66
2022/11/08 03:31:13;;;;;;;;;;;22.50;56.60;;;;;;1526307;77;720;-64
2022/11/08 03:33:15;;;;;;;;;;;22.40;56.60;;;;;;1519293;77;751;-65
2022/11/08 03:35:17;;;;;;;;;;;22.30;56.40;;;;;;1517528;77;1139;-69
2022/11/08 03:37:18;;;;;;;;;;;22.40;56.90;;;;;;1514928;77;689;-67
2022/11/08 03:39:20;;;;;;;;;;;22.50;56.60;;;;;;1517741;77;759;-67
2022/11/08 03:41:22;;;;;;;;;;;22.50;56.50;;;;;;1516831;77;1934;-67
2022/11/08 03:43:25;;;;;;;;;;;22.50;56.40;;;;;;1517667;77;657;-66
2022/11/08 03:45:27;;;;;;;;;;;22.40;56.30;;;;;;1515031;77;1145;-65
2022/11/08 03:47:29;;;;;;;;;;;22.40;56.40;;;;;;1518809;77;529;-67
2022/11/08 03:49:30;;;;;;;;;;;22.40;56.50;;;;;;1517526;77;685;-69
2022/11/08 03:51:32;;;;;;;;;;;22.40;56.50;;;;;;1517655;77;733;-64
2022/11/08 03:53:34;;;;;;;;;;;22.40;56.50;;;;;;1518436;77;1118;-72
2022/11/08 03:55:36;;;;;;;;;;;22.40;56.50;;;;;;1518397;77;670;-68
2022/11/08 03:57:40;;;;;;;;;;;22.40;56.60;;;;;;1517089;77;1587;-67
2022/11/08 03:59:41;;;;;;;;;;;22.40;56.60;;;;;;1516824;77;1689;-68
2022/11/08 04:01:43;;;;;;;;;;;22.30;56.60;;;;;;1521514;77;1937;-70
2022/11/08 04:03:45;;;;;;;;;;;22.30;56.60;;;;;;1517579;77;1141;-68
2022/11/08 04:05:47;;;;;;;;;;;22.30;56.80;;;;;;1518423;77;672;-68
2022/11/08 04:07:49;;;;;;;;;;;22.30;56.70;;;;;;1517614;77;632;-70
2022/11/08 04:09:51;;;;;;;;;;;22.30;56.80;;;;;;1517431;77;689;-67
2022/11/08 04:16:32;;;;;;;;;;;22.30;56.90;;;;;;1523785;77;1623;-67
2022/11/08 04:23:14;;;;;;;;;;;22.50;56.80;;;;;;1518922;77;1632;-64
2022/11/08 04:25:16;;;;;;;;;;;22.50;56.70;;;;;;1518164;77;1221;-66
2022/11/08 04:27:18;;;;;;;;;;;22.50;56.70;;;;;;1515671;77;763;-68
2022/11/08 04:29:20;;;;;;;;;;;22.40;56.60;;;;;;1519452;77;649;-68
2022/11/08 04:31:21;;;;;;;;;;;22.40;56.60;;;;;;1523679;77;701;-67
2022/11/08 04:33:23;;;;;;;;;;;22.50;56.80;;;;;;1515634;77;745;-67
2022/11/08 04:35:25;;;;;;;;;;;22.40;56.70;;;;;;1517677;77;1134;-68
2022/11/08 04:37:27;;;;;;;;;;;22.50;56.80;;;;;;1518894;77;707;-66
2022/11/08 04:39:29;;;;;;;;;;;22.40;56.70;;;;;;1518720;77;725;-66
2022/11/08 04:41:31;;;;;;;;;;;22.40;56.70;;;;;;1516104;77;1940;-67
2022/11/08 04:43:33;;;;;;;;;;;22.50;56.60;;;;;;1518511;77;1173;-66
2022/11/08 04:45:35;;;;;;;;;;;22.60;56.60;;;;;;1525037;77;673;-66
2022/11/08 04:47:36;;;;;;;;;;;22.50;56.50;;;;;;1517037;77;685;-69
2022/11/08 04:49:38;;;;;;;;;;;22.60;56.50;;;;;;1517754;77;696;-65
2022/11/08 04:51:40;;;;;;;;;;;22.60;56.30;;;;;;1516210;77;668;-71
2022/11/08 04:53:42;;;;;;;;;;;22.60;56.30;;;;;;1516683;77;1178;-68
2022/11/08 04:55:44;;;;;;;;;;;22.50;56.30;;;;;;1514540;77;1624;-67
2022/11/08 04:57:46;;;;;;;;;;;22.50;56.30;;;;;;1516669;77;658;-71
2022/11/08 04:59:48;;;;;;;;;;;22.60;56.40;;;;;;1520962;77;647;-68
2022/11/08 05:01:50;;;;;;;;;;;22.60;56.40;;;;;;1516979;77;1944;-66
2022/11/08 05:03:52;;;;;;;;;;;22.60;56.40;;;;;;1518796;77;1138;-68
2022/11/08 05:05:54;;;;;;;;;;;22.60;56.50;;;;;;1517512;77;755;-68
2022/11/08 05:07:56;;;;;;;;;;;22.70;56.50;;;;;;1509278;77;723;-67
2022/11/08 05:09:58;;;;;;;;;;;22.70;56.50;;;;;;1517536;77;672;-68
2022/11/08 05:12:00;;;;;;;;;;;22.60;56.30;;;;;;1518422;77;710;-68
2022/11/08 05:14:01;;;;;;;;;;;22.60;56.40;;;;;;1520537;77;1171;-67
2022/11/08 05:16:13;;;;;;;;;;;22.60;56.50;;;;;;1518124;77;722;-66
2022/11/08 05:18:15;;;;;;;;;;;22.60;56.60;;;;;;1518171;77;692;-67
2022/11/08 05:24:56;;;;;;;;;;;22.60;56.50;;;;;;1515083;77;1653;-67
2022/11/08 05:26:58;;;;;;;;;;;22.60;56.60;;;;;;1519038;77;753;-67
2022/11/08 05:29:00;;;;;;;;;;;22.60;56.60;;;;;;1522281;77;691;-66
2022/11/08 05:31:02;;;;;;;;;;;22.60;56.50;;;;;;1517812;77;586;-66
2022/11/08 05:33:03;;;;;;;;;;;22.60;56.70;;;;;;1518815;77;742;-68
2022/11/08 05:35:06;;;;;;;;;;;22.60;56.80;;;;;;1518632;77;1114;-67
2022/11/08 05:37:08;;;;;;;;;;;22.50;56.90;;;;;;1517785;77;793;-66
2022/11/08 05:39:10;;;;;;;;;;;22.50;56.90;;;;;;1517892;77;715;-68
2022/11/08 05:41:14;;;;;;;;;;;22.50;56.90;;;;;;1518371;77;673;-66
2022/11/08 05:43:16;;;;;;;;;;;22.50;57.10;;;;;;1521512;77;1953;-67
2022/11/08 05:45:18;;;;;;;;;;;22.60;57.00;;;;;;1518736;77;1123;-64
2022/11/08 05:47:20;;;;;;;;;;;22.60;57.00;;;;;;1518361;77;726;-70
2022/11/08 05:49:22;;;;;;;;;;;22.50;57.10;;;;;;1518251;77;785;-67
2022/11/08 05:51:24;;;;;;;;;;;22.50;57.00;;;;;;1519808;77;735;-67
2022/11/08 05:53:26;;;;;;;;;;;22.50;57.30;;;;;;1517015;77;700;-68
2022/11/08 05:55:27;;;;;;;;;;;22.40;57.50;;;;;;1518212;77;1125;-67
2022/11/08 05:57:29;;;;;;;;;;;22.30;58.00;;;;;;1519465;77;716;-68
2022/11/08 05:59:31;;;;;;;;;;;22.20;58.20;;;;;;1518343;77;719;-68
2022/11/08 06:01:33;;;;;;;;;;;22.10;59.00;;;;;;1518672;77;1948;-65
2022/11/08 06:03:35;;;;;;;;;;;22.10;59.00;;;;;;1518857;77;1137;-67
2022/11/08 06:05:37;;;;;;;;;;;22.00;59.10;;;;;;1519130;77;701;-67
2022/11/08 06:07:39;;;;;;;;;;;22.00;59.00;;;;;;1517929;77;728;-66
2022/11/08 06:09:41;;;;;;;;;;;22.00;59.30;;;;;;1517445;77;652;-72
2022/11/08 06:11:43;;;;;;;;;;;22.00;59.40;;;;;;1519297;77;617;-66
2022/11/08 06:13:44;;;;;;;;;;;22.00;59.40;;;;;;1520250;77;1143;-66
2022/11/08 06:15:46;;;;;;;;;;;22.10;59.00;;;;;;1519242;77;688;-67
2022/11/08 06:17:48;;;;;;;;;;;22.20;58.30;;;;;;1519405;77;649;-67
2022/11/08 06:19:50;;;;;;;;;;;22.40;58.00;;;;;;1520272;77;732;-62
2022/11/08 06:21:52;;;;;;;;;;;22.30;57.90;;;;;;1518398;77;1929;-67
2022/11/08 06:23:54;;;;;;;;;;;22.30;58.10;;;;;;1519897;77;1193;-62
2022/11/08 06:25:56;;;;;;;;;;;22.40;57.80;;;;;;1519912;77;761;-64
2022/11/08 06:27:59;;;;;;;;;;;22.40;57.60;;;;;;1519830;77;872;-66
2022/11/08 06:30:01;;;;;;;;;;;22.50;57.60;;;;;;1523342;77;815;-66
2022/11/08 06:32:03;;;;;;;;;;;22.50;57.60;;;;;;1524471;77;723;-65
2022/11/08 06:34:04;;;;;;;;;;;22.40;57.80;;;;;;1519967;74;3072;-63
2022/11/08 06:36:07;;;;;;;;;;;22.30;58.00;;;;;;1524198;77;515;-64
2022/11/08 06:38:08;;;;;;;;;;;22.20;58.30;;;;;;1515850;77;659;-65
2022/11/08 06:40:11;;;;;;;;;;;22.10;58.90;;;;;;1528976;77;690;-65
2022/11/08 06:42:13;;;;;;;;;;;22.20;58.20;;;;;;1525234;77;1906;-65
2022/11/08 06:44:15;;;;;;;;;;;22.40;57.80;;;;;;1518619;77;1186;-65
2022/11/08 06:46:17;;;;;;;;;;;22.40;57.50;;;;;;1528618;77;671;-66
2022/11/08 06:48:19;;;;;;;;;;;22.50;57.60;;;;;;1530184;76;1622;-64
2022/11/08 06:50:20;;;;;;;;;;;22.40;57.40;;;;;;1527268;76;666;-66
2022/11/08 06:52:22;;;;;;;;;;;22.40;57.40;;;;;;1524893;77;639;-66
2022/11/08 06:54:24;;;;;;;;;;;22.20;57.20;;;;;;1533565;76;1215;-65
2022/11/08 06:56:26;;;;;;;;;;;22.20;57.10;;;;;;1529348;76;669;-65
2022/11/08 06:58:28;;;;;;;;;;;22.20;57.10;;;;;;1537975;76;697;-66
2022/11/08 07:00:30;;;;;;;;;;;22.20;57.20;;;;;;1527865;76;716;-66
2022/11/08 07:02:32;;;;;;;;;;;22.20;57.30;;;;;;1532411;76;1939;-66
2022/11/08 07:04:34;;;;;;;;;;;22.20;57.30;;;;;;1532738;76;1125;-66
2022/11/08 07:06:36;;;;;;;;;;;22.10;57.30;;;;;;1536936;76;775;-65
2022/11/08 07:08:38;;;;;;;;;;;22.20;57.30;;;;;;1538192;76;722;-65
2022/11/08 07:10:39;;;;;;;;;;;22.10;57.30;;;;;;1537623;76;680;-66
2022/11/08 07:12:41;;;;;;;;;;;22.10;57.30;;;;;;1536573;76;657;-66
2022/11/08 07:14:43;;;;;;;;;;;22.10;57.30;;;;;;1536738;76;1126;-66
2022/11/08 07:16:45;;;;;;;;;;;22.10;57.40;;;;;;1536392;77;714;-66
2022/11/08 07:18:49;;;;;;;;;;;22.10;57.50;;;;;;1535828;77;673;-66
2022/11/08 07:20:51;;;;;;;;;;;22.10;57.40;;;;;;1535627;76;1580;-66
2022/11/08 07:22:56;;;;;;;;;;;22.10;57.50;;;;;;1538366;76;1910;-66
2022/11/08 07:24:58;;;;;;;;;;;22.10;57.50;;;;;;1531208;76;1174;-66
2022/11/08 07:27:00;;;;;;;;;;;22.10;57.60;;;;;;1531969;76;734;-66
2022/11/08 07:29:02;;;;;;;;;;;22.10;57.50;;;;;;1532811;76;638;-66
2022/11/08 07:31:04;;;;;;;;;;;22.10;57.60;;;;;;1530780;76;691;-66
2022/11/08 07:33:06;;;;;;;;;;;22.00;57.40;;;;;;1525352;77;699;-65
2022/11/08 07:35:08;;;;;;;;;;;22.00;57.50;;;;;;1523444;76;1149;-66
2022/11/08 07:37:09;;;;;;;;;;;22.00;57.50;;;;;;1537706;76;737;-67
2022/11/08 07:39:11;;;;;;;;;;;22.00;57.30;;;;;;1529230;76;753;-67
2022/11/08 07:41:13;;;;;;;;;;;22.00;57.20;;;;;;1527617;76;668;-65
2022/11/08 07:43:15;;;;;;;;;;;22.00;57.30;;;;;;1535400;76;1927;-62
2022/11/08 07:45:17;;;;;;;;;;;22.00;57.10;;;;;;1539090;76;1134;-63
2022/11/08 07:47:19;;;;;;;;;;;22.00;57.10;;;;;;1523189;77;591;-63
2022/11/08 07:49:21;;;;;;;;;;;22.00;57.10;;;;;;1533228;76;678;-62
2022/11/08 07:51:22;;;;;;;;;;;22.10;57.10;;;;;;1531087;76;791;-63
2022/11/08 07:53:27;;;;;;;;;;;22.20;57.10;;;;;;1536199;76;773;-64
2022/11/08 07:55:29;;;;;;;;;;;22.20;57.20;;;;;;1536044;76;1112;-63
2022/11/08 07:57:31;;;;;;;;;;;22.30;57.10;;;;;;1537464;76;684;-63
2022/11/08 07:59:33;;;;;;;;;;;22.20;57.10;;;;;;1533937;76;670;-64
2022/11/08 08:01:35;;;;;;;;;;;22.30;57.00;;;;;;1535912;76;677;-64
2022/11/08 08:03:37;;;;;;;;;;;22.30;57.10;;;;;;1537222;77;1924;-64
2022/11/08 08:05:41;;;;;;;;;;;22.40;57.10;;;;;;1536917;76;1096;-63
2022/11/08 08:07:42;;;;;;;;;;;22.30;57.30;;;;;;1535305;76;1717;-66
2022/11/08 08:09:44;;;;;;;;;;;22.40;57.40;;;;;;1537411;76;638;-71
2022/11/08 08:11:46;;;;;;;;;;;22.30;57.80;;;;;;1531542;76;637;-67
2022/11/08 08:13:48;;;;;;;;;;;22.30;57.90;;;;;;1524399;77;578;-68
2022/11/08 08:15:50;;;;;;;;;;;22.20;57.90;;;;;;1506911;77;1174;-68
2022/11/08 08:17:52;;;;;;;;;;;22.30;58.20;;;;;;1538608;76;648;-67
2022/11/08 08:19:54;;;;;;;;;;;22.30;58.40;;;;;;1518389;76;708;-66
2022/11/08 08:21:56;;;;;;;;;;;22.20;58.70;;;;;;1535097;76;613;-65
2022/11/08 08:23:58;;;;;;;;;;;22.20;58.90;;;;;;1530124;76;1940;-66
2022/11/08 08:26:01;;;;;;;;;;;22.20;59.10;;;;;;1538884;76;694;-66
2022/11/08 08:28:04;;;;;;;;;;;22.20;59.30;;;;;;1538454;76;626;-66
2022/11/08 08:30:07;;;;;;;;;;;22.20;59.40;;;;;;1538553;77;650;-66
2022/11/08 08:32:09;;;;;;;;;;;22.20;59.60;;;;;;1530365;76;744;-65
2022/11/08 08:34:10;;;;;;;;;;;22.20;59.60;;;;;;1537807;76;1129;-65
2022/11/08 08:36:12;;;;;;;;;;;22.20;59.70;;;;;;1533953;76;804;-65
2022/11/08 08:38:14;;;;;;;;;;;22.30;59.90;;;;;;1532322;76;614;-65
2022/11/08 08:40:16;;;;;;;;;;;22.20;59.70;;;;;;1534887;76;1571;-66
2022/11/08 08:42:18;;;;;;;;;;;22.20;59.80;;;;;;1532608;77;715;-65
2022/11/08 08:44:20;;;;;;;;;;;22.20;59.80;;;;;;1536402;76;1952;-65
2022/11/08 08:46:22;;;;;;;;;;;22.30;59.80;;;;;;1535558;76;656;-65
2022/11/08 08:48:24;;;;;;;;;;;22.40;59.80;;;;;;1539159;76;558;-65
2022/11/08 08:50:27;;;;;;;;;;;22.40;59.80;;;;;;1539199;76;694;-65
2022/11/08 08:52:29;;;;;;;;;;;22.30;59.70;;;;;;1539272;77;720;-65
2022/11/08 08:54:31;;;;;;;;;;;22.40;59.70;;;;;;1536751;76;1107;-66
2022/11/08 08:56:33;;;;;;;;;;;22.40;59.60;;;;;;1538499;77;648;-66
2022/11/08 08:58:35;;;;;;;;;;;22.40;59.50;;;;;;1537420;77;714;-67
2022/11/08 09:00:37;;;;;;;;;;;22.40;59.30;;;;;;1536798;76;681;-66
2022/11/08 09:02:38;;;;;;;;;;;22.50;59.20;;;;;;1538675;76;748;-66
2022/11/08 09:04:40;;;;;;;;;;;22.50;58.60;;;;;;1536086;76;1130;-66
2022/11/08 09:06:42;;;;;;;;;;;22.60;58.30;;;;;;1538736;76;559;-66
2022/11/08 09:08:44;;;;;;;;;;;22.60;57.90;;;;;;1537983;76;709;-66
2022/11/08 09:10:46;;;;;;;;;;;22.70;57.80;;;;;;1537651;76;618;-66
2022/11/08 09:12:48;;;;;;;;;;;22.70;57.60;;;;;;1507295;78;781;-66
2022/11/08 09:14:50;;;;;;;;;;;22.80;57.40;;;;;;1535309;76;1120;-67
2022/11/08 09:16:52;;;;;;;;;;;22.80;57.10;;;;;;1536546;77;754;-66
2022/11/08 09:18:54;;;;;;;;;;;22.80;56.90;;;;;;1540205;76;685;-66
2022/11/08 09:20:56;;;;;;;;;;;22.80;56.70;;;;;;1536107;76;645;-66
2022/11/08 09:23:02;;;;;;;;;;;22.90;56.70;;;;;;1529463;76;1923;-66
2022/11/08 09:25:04;;;;;;;;;;;22.90;56.50;;;;;;1537725;76;1207;-66
2022/11/08 09:27:06;;;;;;;;;;;22.90;56.50;;;;;;1528361;76;709;-66
2022/11/08 09:29:08;;;;;;;;;;;23.00;56.40;;;;;;1539333;76;660;-66
2022/11/08 09:31:10;;;;;;;;;;;23.00;56.40;;;;;;1535775;76;716;-66
2022/11/08 09:33:12;;;;;;;;;;;23.00;56.40;;;;;;1543063;76;699;-66
2022/11/08 09:35:14;;;;;;;;;;;23.00;56.50;;;;;;1536206;76;1359;-66
2022/11/08 09:37:16;;;;;;;;;;;23.10;56.60;;;;;;1538363;76;789;-66
2022/11/08 09:39:18;;;;;;;;;;;23.10;56.50;;;;;;1537307;77;693;-66
2022/11/08 09:41:21;;;;;;;;;;;23.00;56.30;;;;;;1537878;76;693;-66
2022/11/08 09:43:25;;;;;;;;;;;23.00;56.30;;;;;;1530418;76;1931;-64
2022/11/08 09:45:28;;;;;;;;;;;23.00;56.40;;;;;;1531843;76;1645;-65
2022/11/08 09:47:36;;;;;;;;;;;23.00;56.30;;;;;;1538520;76;664;-65
2022/11/08 09:49:39;;;;;;;;;;;23.10;56.40;;;;;;1538379;76;645;-66
2022/11/08 09:51:41;;;;;;;;;;;23.00;56.20;;;;;;1537527;77;619;-66
2022/11/08 09:53:44;;;;;;;;;;;23.00;56.30;;;;;;1536490;76;626;-66
2022/11/08 09:55:47;;;;;;;;;;;23.10;56.50;;;;;;1538764;76;1102;-66
2022/11/08 09:57:54;;;;;;;;;;;23.00;56.30;;;;;;1535020;76;641;-65
2022/11/08 10:00:00;;;;;;;;;;;23.00;56.30;;;;;;1536295;77;1878;-66
2022/11/08 10:02:02;;;;;;;;;;;23.10;56.40;;;;;;1534347;76;719;-66
2022/11/08 10:04:21;;;;;;;;;;;23.00;56.20;;;;;;1538785;76;1936;-66
2022/11/08 10:06:30;;;;;;;;;;;23.00;56.20;;;;;;1537525;76;1061;-66
2022/11/08 10:08:34;;;;;;;;;;;23.00;56.20;;;;;;1538407;76;758;-66
2022/11/08 10:10:47;;;;;;;;;;;23.00;56.20;;;;;;1531729;76;1170;-65
2022/11/08 10:12:53;;;;;;;;;;;23.00;56.20;;;;;;1533558;76;824;-65
2022/11/08 10:15:09;;;;;;;;;;;23.00;56.10;;;;;;1538056;76;1138;-65
2022/11/08 10:17:12;;;;;;;;;;;23.00;56.00;;;;;;1539741;76;686;-65
2022/11/08 10:19:33;;;;;;;;;;;23.00;56.00;;;;;;1536552;76;1086;-66
2022/11/08 10:21:53;;;;;;;;;;;23.00;56.00;;;;;;1535119;76;1581;-66
2022/11/08 10:23:56;;;;;;;;;;;23.00;56.00;;;;;;1536105;76;1904;-66
2022/11/08 10:26:02;;;;;;;;;;;23.00;56.10;;;;;;1532404;76;1886;-65
2022/11/08 10:28:04;;;;;;;;;;;23.00;56.30;;;;;;1535233;76;2011;-66
2022/11/08 10:30:08;;;;;;;;;;;23.00;56.30;;;;;;1538042;76;696;-66
2022/11/08 10:32:23;;;;;;;;;;;23.00;56.30;;;;;;1538083;76;1530;-66
2022/11/08 10:34:26;;;;;;;;;;;22.90;56.30;;;;;;1534866;76;1146;-69
2022/11/08 10:36:29;;;;;;;;;;;23.00;56.30;;;;;;1534535;76;782;-66
2022/11/08 10:38:35;;;;;;;;;;;22.90;56.50;;;;;;1538074;76;747;-66
2022/11/08 10:40:40;;;;;;;;;;;23.00;56.50;;;;;;1535475;77;675;-66
2022/11/08 10:42:45;;;;;;;;;;;23.00;56.40;;;;;;1532873;77;591;-66
2022/11/08 10:44:47;;;;;;;;;;;23.00;56.40;;;;;;1538418;76;1918;-66
2022/11/08 10:46:52;;;;;;;;;;;23.00;56.40;;;;;;1535820;76;661;-66
2022/11/08 10:48:56;;;;;;;;;;;23.00;56.30;;;;;;1535842;76;1119;-66
2022/11/08 10:50:58;;;;;;;;;;;23.00;56.30;;;;;;1537237;76;725;-66
2022/11/08 10:53:00;;;;;;;;;;;23.00;56.30;;;;;;1536225;76;673;-66
2022/11/08 10:55:02;;;;;;;;;;;22.90;56.40;;;;;;1537590;76;1121;-66
2022/11/08 10:57:04;;;;;;;;;;;23.00;56.30;;;;;;1508934;77;644;-66
2022/11/08 10:59:08;;;;;;;;;;;23.00;56.30;;;;;;1541049;76;723;-66
2022/11/08 11:01:21;;;;;;;;;;;23.00;56.30;;;;;;1505186;77;751;-66
2022/11/08 11:03:27;;;;;;;;;;;23.10;56.30;;;;;;1536563;77;1890;-66
2022/11/08 11:05:31;;;;;;;;;;;23.00;56.20;;;;;;1532069;76;1589;-66
2022/11/08 11:07:33;;;;;;;;;;;23.10;56.30;;;;;;1524896;76;1007;-66
2022/11/08 11:09:35;;;;;;;;;;;23.10;56.30;;;;;;1533085;76;691;-66
2022/11/08 11:11:37;;;;;;;;;;;23.10;56.20;;;;;;1535087;76;682;-66
2022/11/08 11:13:39;;;;;;;;;;;23.00;56.20;;;;;;1534786;76;776;-66
2022/11/08 11:15:51;;;;;;;;;;;23.10;56.40;;;;;;1533377;76;1105;-65
2022/11/08 11:17:53;;;;;;;;;;;23.00;56.20;;;;;;1537683;77;698;-66
2022/11/08 11:19:55;;;;;;;;;;;23.10;56.30;;;;;;1537898;77;678;-66
2022/11/08 11:22:04;;;;;;;;;;;23.10;56.30;;;;;;1533628;76;710;-66
2022/11/08 11:24:07;;;;;;;;;;;23.10;56.30;;;;;;1536864;76;1928;-65
2022/11/08 11:26:20;;;;;;;;;;;23.00;56.20;;;;;;1539195;76;680;-65
2022/11/08 11:28:22;;;;;;;;;;;23.10;56.30;;;;;;1538337;76;1483;-66
2022/11/08 11:30:27;;;;;;;;;;;23.10;56.30;;;;;;1536028;76;903;-67
2022/11/08 11:32:35;;;;;;;;;;;23.00;56.20;;;;;;1535448;77;612;-66
2022/11/08 11:34:39;;;;;;;;;;;23.10;56.30;;;;;;1537700;76;1138;-66
2022/11/08 11:36:40;;;;;;;;;;;23.10;56.30;;;;;;1538071;76;767;-65
2022/11/08 11:38:52;;;;;;;;;;;23.00;56.20;;;;;;1539794;76;804;-67
2022/11/08 11:40:54;;;;;;;;;;;23.10;56.30;;;;;;1539284;76;765;-66
2022/11/08 11:43:10;;;;;;;;;;;23.00;56.20;;;;;;1536888;76;725;-66
2022/11/08 11:45:16;;;;;;;;;;;23.10;56.40;;;;;;1534580;76;1927;-66
2022/11/08 11:47:23;;;;;;;;;;;23.00;56.30;;;;;;1526686;76;649;-66
2022/11/08 11:49:25;;;;;;;;;;;23.00;56.20;;;;;;1532698;76;707;-66
2022/11/08 11:51:28;;;;;;;;;;;23.00;56.30;;;;;;1538143;76;726;-66
2022/11/08 11:53:35;;;;;;;;;;;23.10;56.30;;;;;;1530577;76;649;-66
2022/11/08 11:55:45;;;;;;;;;;;23.10;56.30;;;;;;1539084;76;1603;-65
2022/11/08 11:57:54;;;;;;;;;;;23.10;56.30;;;;;;1537842;76;1786;-65
2022/11/08 12:00:00;;;;;;;;;;;23.10;56.30;;;;;;1533157;77;1632;-66
2022/11/08 12:02:04;;;;;;;;;;;23.10;56.40;;;;;;1534933;76;1284;-66
2022/11/08 12:04:07;;;;;;;;;;;23.10;56.30;;;;;;1536120;76;1943;-66
2022/11/08 12:06:13;;;;;;;;;;;23.10;56.30;;;;;;1537167;76;725;-65
2022/11/08 12:08:17;;;;;;;;;;;23.00;56.20;;;;;;1534194;76;2039;-65
2022/11/08 12:10:21;;;;;;;;;;;23.10;56.30;;;;;;1537721;76;774;-66
2022/11/08 12:12:24;;;;;;;;;;;23.20;56.30;;;;;;1534893;76;1906;-66
2022/11/08 12:14:28;;;;;;;;;;;23.10;56.30;;;;;;1537072;76;1122;-66
2022/11/08 12:16:37;;;;;;;;;;;23.00;56.30;;;;;;1538990;77;754;-66
2022/11/08 12:18:47;;;;;;;;;;;23.00;56.20;;;;;;1535199;76;671;-66
2022/11/08 12:20:54;;;;;;;;;;;23.00;56.30;;;;;;1538803;76;2055;-65
2022/11/08 12:23:14;;;;;;;;;;;23.00;56.40;;;;;;1535667;77;1839;-64
2022/11/08 12:25:20;;;;;;;;;;;22.90;56.50;;;;;;1537849;76;1904;-66
2022/11/08 12:27:23;;;;;;;;;;;22.90;56.50;;;;;;1535524;76;707;-64
2022/11/08 12:29:29;;;;;;;;;;;23.00;56.60;;;;;;1532065;76;686;-66
2022/11/08 12:31:32;;;;;;;;;;;22.80;56.40;;;;;;1533542;77;1047;-66
2022/11/08 12:33:39;;;;;;;;;;;23.00;56.70;;;;;;1529671;76;754;-66
2022/11/08 12:35:59;;;;;;;;;;;23.00;56.80;;;;;;1521993;75;3107;-65
2022/11/08 12:38:19;;;;;;;;;;;23.00;56.80;;;;;;1516298;77;762;-69